createdAt,value
2018-07-14T00:02:08.257Z,99.70
2018-07-14T00:04:36.789Z,99.50
2018-07-14T00:07:05.417Z,99.70
2018-07-14T00:09:33.959Z,99.10
2018-07-14T00:12:02.600Z,99.20
2018-07-14T00:14:31.125Z,99.20
2018-07-14T00:16:59.644Z,99.10
2018-07-14T00:19:28.183Z,98.70
2018-07-14T00:21:56.704Z,97.70
2018-07-14T00:24:25.291Z,97.00
2018-07-14T00:26:53.788Z,96.60
2018-07-14T00:29:22.320Z,96.20
2018-07-14T00:31:50.851Z,97.40
2018-07-14T00:34:19.371Z,97.30
2018-07-14T00:36:47.908Z,97.70
2018-07-14T00:39:16.486Z,98.10
2018-07-14T00:41:45.014Z,97.60
2018-07-14T00:44:13.578Z,97.90
2018-07-14T00:46:42.113Z,97.90
2018-07-14T00:49:10.672Z,98.10
2018-07-14T00:51:39.218Z,97.90
2018-07-14T00:54:07.756Z,97.10
2018-07-14T00:56:36.319Z,97.30
2018-07-14T00:59:04.857Z,97.90
2018-07-14T01:01:33.417Z,97.30
2018-07-14T01:04:01.956Z,97.30
2018-07-14T01:06:30.507Z,95.70
2018-07-14T01:08:59.039Z,95.70
2018-07-14T01:11:27.575Z,96.40
2018-07-14T01:13:56.106Z,97.00
2018-07-14T01:16:24.631Z,97.30
2018-07-14T01:18:53.200Z,97.20
2018-07-14T01:21:21.756Z,96.50
2018-07-14T01:23:50.311Z,96.30
2018-07-14T01:26:18.831Z,96.10
2018-07-14T01:28:47.340Z,97.10
2018-07-14T01:31:15.931Z,96.80
2018-07-14T01:33:44.490Z,97.20
2018-07-14T01:36:12.996Z,97.50
2018-07-14T01:38:41.547Z,97.60
2018-07-14T01:43:38.275Z,98.40
2018-07-14T01:46:06.878Z,97.70
2018-07-14T01:48:35.418Z,97.50
2018-07-14T01:51:04.027Z,97.20
2018-07-14T01:53:32.564Z,98.40
2018-07-14T01:56:01.108Z,98.00
2018-07-14T01:58:29.651Z,98.00
2018-07-14T02:00:58.166Z,97.60
2018-07-14T02:03:26.712Z,98.40
2018-07-14T02:05:55.217Z,98.90
2018-07-14T02:08:23.748Z,98.40
2018-07-14T02:10:52.276Z,98.70
2018-07-14T02:18:17.210Z,97.20
2018-07-14T02:20:45.732Z,96.90
2018-07-14T02:23:14.235Z,97.10
2018-07-14T02:25:42.816Z,96.80
2018-07-14T02:28:11.327Z,97.90
2018-07-14T02:30:39.851Z,97.80
2018-07-14T02:33:08.451Z,97.80
2018-07-14T02:35:36.981Z,97.30
2018-07-14T02:38:05.623Z,97.00
2018-07-14T02:40:34.173Z,97.60
2018-07-14T02:43:02.700Z,97.80
2018-07-14T02:45:31.236Z,97.20
2018-07-14T02:47:59.756Z,96.70
2018-07-14T02:50:28.339Z,95.10
2018-07-14T02:52:56.884Z,93.80
2018-07-14T02:55:25.442Z,92.60
2018-07-14T02:57:53.975Z,92.20
2018-07-14T03:00:22.546Z,93.10
2018-07-14T03:02:51.094Z,93.60
2018-07-14T03:07:47.782Z,95.20
2018-07-14T03:10:16.348Z,95.10
2018-07-14T03:12:44.930Z,95.30
2018-07-14T03:20:09.862Z,96.00
2018-07-14T03:22:38.388Z,95.80
2018-07-14T03:25:06.958Z,96.10
2018-07-14T03:27:35.495Z,96.70
2018-07-14T03:30:04.090Z,96.10
2018-07-14T03:32:32.609Z,95.80
2018-07-14T03:35:01.134Z,95.90
2018-07-14T03:37:29.661Z,95.90
2018-07-14T03:39:58.201Z,95.90
2018-07-14T03:42:26.729Z,96.50
2018-07-14T03:44:55.315Z,96.60
2018-07-14T03:47:23.835Z,95.40
2018-07-14T03:52:21.407Z,95.80
2018-07-14T03:54:49.948Z,96.30
2018-07-14T03:57:18.487Z,96.20
2018-07-14T03:59:47.025Z,96.40
2018-07-14T04:02:15.551Z,96.50
2018-07-14T04:04:44.089Z,95.50
2018-07-14T04:07:12.617Z,96.20
2018-07-14T04:09:41.167Z,96.30
2018-07-14T04:12:09.703Z,96.20
2018-07-14T04:14:38.350Z,95.80
2018-07-14T04:17:06.904Z,95.80
2018-07-14T04:19:35.440Z,95.60
2018-07-14T04:22:04.012Z,96.50
2018-07-14T04:24:32.608Z,96.10
2018-07-14T04:27:01.224Z,96.70
2018-07-14T04:29:29.792Z,96.60
2018-07-14T04:31:58.368Z,96.70
2018-07-14T04:34:26.912Z,97.20
2018-07-14T04:36:55.446Z,97.40
2018-07-14T04:39:24.008Z,96.80
2018-07-14T04:41:52.572Z,97.10
2018-07-14T04:44:21.060Z,96.80
2018-07-14T04:46:49.601Z,96.20
2018-07-14T04:49:18.168Z,95.40
2018-07-14T04:51:46.717Z,95.00
2018-07-14T04:56:43.436Z,94.20
2018-07-14T04:59:11.978Z,93.30
2018-07-14T05:01:40.514Z,92.60
2018-07-14T05:04:09.170Z,93.70
2018-07-14T05:06:37.750Z,94.20
2018-07-14T05:09:07.086Z,92.90
2018-07-14T05:11:35.604Z,92.40
2018-07-14T05:14:04.262Z,93.10
2018-07-14T05:16:32.822Z,94.00
2018-07-14T05:19:01.362Z,93.40
2018-07-14T05:21:30.032Z,94.00
2018-07-14T05:23:58.494Z,94.10
2018-07-14T05:26:27.016Z,94.00
2018-07-14T05:28:55.556Z,94.10
2018-07-14T05:31:24.090Z,94.30
2018-07-14T05:33:52.636Z,94.30
2018-07-14T05:36:21.220Z,94.30
2018-07-14T05:38:49.764Z,94.60
2018-07-14T05:41:18.262Z,94.10
2018-07-14T05:43:46.882Z,95.30
2018-07-14T05:46:15.392Z,95.30
2018-07-14T05:48:43.972Z,95.10
2018-07-14T05:51:12.498Z,95.00
2018-07-14T05:53:41.064Z,94.40
2018-07-14T05:56:09.580Z,94.30
2018-07-14T06:01:06.409Z,95.10
2018-07-14T06:03:35.015Z,94.60
2018-07-14T06:06:03.570Z,90.60
2018-07-14T06:08:32.124Z,88.30
2018-07-14T06:11:00.667Z,90.00
2018-07-14T06:13:29.250Z,91.00
2018-07-14T06:15:57.771Z,90.20
2018-07-14T06:18:26.273Z,89.20
2018-07-14T06:20:54.800Z,90.20
2018-07-14T06:23:23.362Z,91.20
2018-07-14T06:25:51.912Z,90.70
2018-07-14T06:28:20.483Z,91.60
2018-07-14T06:30:49.029Z,91.50
2018-07-14T06:33:17.567Z,91.60
2018-07-14T06:43:10.691Z,90.40
2018-07-14T06:45:39.255Z,90.10
2018-07-14T06:48:07.816Z,89.00
2018-07-14T06:50:36.387Z,90.80
2018-07-14T06:53:05.024Z,90.80
2018-07-14T06:55:33.565Z,90.90
2018-07-14T06:58:02.074Z,85.80
2018-07-14T07:00:30.608Z,90.00
2018-07-14T07:02:59.248Z,90.10
2018-07-14T07:05:27.786Z,82.40
2018-07-14T07:10:24.542Z,83.70
2018-07-14T07:12:53.091Z,78.80
2018-07-14T07:15:21.708Z,79.10
2018-07-14T07:17:50.266Z,78.40
2018-07-14T07:20:18.783Z,79.60
2018-07-14T07:22:47.369Z,80.80
2018-07-14T07:25:15.898Z,76.70
2018-07-14T07:27:44.492Z,73.10
2018-07-14T07:30:13.125Z,74.80
2018-07-14T07:32:41.636Z,73.90
2018-07-14T07:35:10.175Z,73.60
2018-07-14T07:37:38.783Z,71.50
2018-07-14T07:40:07.503Z,72.80
2018-07-14T07:42:36.064Z,74.40
2018-07-14T07:45:05.057Z,73.80
2018-07-14T07:47:33.592Z,72.80
2018-07-14T07:52:30.341Z,74.40
2018-07-14T07:54:58.891Z,72.50
2018-07-14T07:57:27.490Z,74.50
2018-07-14T07:59:56.015Z,76.50
2018-07-14T08:04:53.090Z,79.50
2018-07-14T08:09:50.311Z,82.80
2018-07-14T08:12:19.016Z,84.50
2018-07-14T08:14:47.530Z,85.20
2018-07-14T08:17:16.149Z,87.70
2018-07-14T08:19:44.672Z,87.20
2018-07-14T08:22:13.208Z,88.30
2018-07-14T08:24:41.783Z,85.90
2018-07-14T08:29:38.563Z,93.10
2018-07-14T08:34:35.360Z,95.00
2018-07-14T08:37:07.210Z,96.20
2018-07-14T08:39:35.919Z,97.50
2018-07-14T08:42:04.464Z,97.70
2018-07-14T08:44:33.009Z,98.20
2018-07-14T08:47:01.523Z,97.90
2018-07-14T08:49:30.138Z,97.90
2018-07-14T08:54:30.561Z,95.10
2018-07-14T08:59:27.370Z,94.60
2018-07-14T09:01:56.246Z,94.00
2018-07-14T09:04:25.387Z,92.40
2018-07-14T09:06:57.210Z,89.10
2018-07-14T09:09:25.778Z,90.70
2018-07-14T09:14:22.478Z,87.90
2018-07-14T09:16:51.003Z,84.60
2018-07-14T09:19:19.590Z,78.00
2018-07-14T09:21:48.142Z,76.10
2018-07-14T09:24:16.701Z,79.00
2018-07-14T09:26:45.504Z,72.10
2018-07-14T09:29:14.147Z,76.70
2018-07-14T09:31:42.827Z,72.20
2018-07-14T09:34:11.368Z,71.30
2018-07-14T09:36:39.939Z,71.20
2018-07-14T09:39:09.818Z,69.50
2018-07-14T09:41:38.737Z,63.90
2018-07-14T09:44:07.524Z,65.00
2018-07-14T09:46:36.351Z,63.30
2018-07-14T09:49:05.397Z,58.70
2018-07-14T09:51:34.077Z,61.20
2018-07-14T09:54:02.604Z,57.30
2018-07-14T09:56:31.127Z,61.00
2018-07-14T09:58:59.671Z,60.60
2018-07-14T10:01:28.223Z,60.80
2018-07-14T10:03:57.157Z,58.70
2018-07-14T10:06:25.672Z,59.10
2018-07-14T10:11:22.396Z,59.50
2018-07-14T10:13:51.305Z,56.30
2018-07-14T10:16:20.993Z,58.10
2018-07-14T10:18:52.454Z,62.10
2018-07-14T10:21:21.994Z,61.80
2018-07-14T10:23:50.783Z,58.60
2018-07-14T10:26:19.842Z,56.90
2018-07-14T10:28:48.392Z,56.90
2018-07-14T10:31:16.946Z,58.00
2018-07-14T10:33:45.956Z,58.30
2018-07-14T10:36:14.632Z,54.60
2018-07-14T10:38:43.293Z,55.60
2018-07-14T10:41:11.838Z,56.90
2018-07-14T10:43:40.362Z,56.20
2018-07-14T10:46:09.037Z,57.80
2018-07-14T10:48:37.554Z,57.60
2018-07-14T10:51:06.144Z,58.30
2018-07-14T10:53:34.704Z,53.20
2018-07-14T10:56:03.240Z,55.80
2018-07-14T10:58:31.790Z,54.00
2018-07-14T11:01:00.341Z,54.10
2018-07-14T11:03:28.908Z,53.60
2018-07-14T11:05:57.526Z,50.50
2018-07-14T11:08:26.027Z,53.30
2018-07-14T11:10:54.607Z,51.70
2018-07-14T11:13:23.130Z,50.40
2018-07-14T11:15:51.644Z,51.50
2018-07-14T11:23:16.585Z,52.20
2018-07-14T11:25:45.070Z,48.20
2018-07-14T11:28:13.639Z,49.60
2018-07-14T11:30:42.191Z,46.40
2018-07-14T11:33:10.731Z,47.70
2018-07-14T11:35:39.269Z,46.40
2018-07-14T11:38:07.823Z,44.70
2018-07-14T11:43:04.583Z,42.40
2018-07-14T11:45:33.205Z,43.10
2018-07-14T11:48:01.869Z,41.90
2018-07-14T11:52:58.615Z,43.70
2018-07-14T11:55:27.153Z,43.30
2018-07-14T11:57:55.685Z,47.20
2018-07-14T12:00:24.293Z,42.70
2018-07-14T12:02:52.839Z,43.60
2018-07-14T12:05:21.584Z,44.20
2018-07-14T12:07:50.108Z,43.90
2018-07-14T12:10:18.739Z,44.10
2018-07-14T12:15:15.600Z,43.60
2018-07-14T12:17:44.125Z,45.70
2018-07-14T12:20:12.707Z,43.00
2018-07-14T12:22:41.272Z,42.40
2018-07-14T12:25:09.852Z,43.40
2018-07-14T12:30:06.646Z,40.70
2018-07-14T12:32:35.433Z,40.70
2018-07-14T12:35:03.969Z,39.50
2018-07-14T12:37:32.517Z,39.20
2018-07-14T12:40:01.057Z,40.10
2018-07-14T12:42:29.582Z,40.50
2018-07-14T12:44:58.143Z,40.90
2018-07-14T12:47:26.708Z,40.50
2018-07-14T12:49:55.245Z,38.80
2018-07-14T12:52:23.793Z,40.40
2018-07-14T12:54:52.376Z,40.00
2018-07-14T12:57:20.969Z,38.30
2018-07-14T12:59:50.516Z,38.60
2018-07-14T13:02:19.079Z,37.90
2018-07-14T13:07:15.828Z,36.70
2018-07-14T13:09:44.449Z,38.00
2018-07-14T13:12:13.078Z,36.80
2018-07-14T13:14:41.622Z,36.90
2018-07-14T13:17:10.223Z,37.60
2018-07-14T13:19:38.720Z,37.30
2018-07-14T13:22:07.342Z,37.50
2018-07-14T13:24:35.961Z,37.50
2018-07-14T13:27:04.792Z,37.40
2018-07-14T13:29:33.334Z,36.70
2018-07-14T13:32:01.885Z,38.00
2018-07-14T13:34:30.388Z,39.60
2018-07-14T13:36:58.940Z,37.30
2018-07-14T13:39:27.494Z,37.60
2018-07-14T13:41:56.074Z,37.70
2018-07-14T13:44:24.586Z,39.80
2018-07-14T13:46:53.217Z,37.40
2018-07-14T13:49:21.745Z,36.60
2018-07-14T13:51:50.324Z,36.80
2018-07-14T13:54:18.870Z,37.60
2018-07-14T13:56:47.432Z,38.00
2018-07-14T13:59:15.963Z,38.90
2018-07-14T14:01:44.517Z,38.70
2018-07-14T14:04:13.642Z,40.40
2018-07-14T14:06:42.167Z,41.70
2018-07-14T14:09:10.720Z,40.00
2018-07-14T14:11:39.240Z,39.40
2018-07-14T14:19:04.587Z,37.20
2018-07-14T14:21:33.240Z,36.90
2018-07-14T14:24:01.795Z,37.20
2018-07-14T14:26:30.330Z,38.20
2018-07-14T14:28:58.872Z,39.00
2018-07-14T14:31:27.404Z,40.20
2018-07-14T14:33:55.959Z,40.00
2018-07-14T14:36:24.451Z,40.90
2018-07-14T14:38:53.047Z,40.70
2018-07-14T14:41:21.654Z,40.20
2018-07-14T14:43:50.180Z,39.50
2018-07-14T14:46:18.754Z,40.60
2018-07-14T14:51:15.513Z,38.80
2018-07-14T14:53:44.079Z,39.70
2018-07-14T14:56:12.809Z,38.90
2018-07-14T14:58:41.282Z,36.60
2018-07-14T15:01:09.897Z,36.50
2018-07-14T15:03:38.790Z,38.20
2018-07-14T15:06:07.388Z,38.30
2018-07-14T15:08:35.937Z,38.70
2018-07-14T15:11:04.544Z,39.20
2018-07-14T15:13:33.210Z,39.70
2018-07-14T15:16:01.754Z,38.70
2018-07-14T15:18:30.295Z,39.20
2018-07-14T15:23:27.038Z,39.30
2018-07-14T15:25:55.677Z,38.20
2018-07-14T15:28:24.145Z,36.30
2018-07-14T15:30:52.655Z,38.40
2018-07-14T15:33:21.296Z,38.00
2018-07-14T15:35:50.208Z,37.50
2018-07-14T15:38:18.754Z,37.90
2018-07-14T15:40:47.381Z,38.60
2018-07-14T15:43:15.944Z,40.40
2018-07-14T15:45:44.452Z,39.50
2018-07-14T15:50:41.184Z,37.90
2018-07-14T15:53:09.734Z,39.70
2018-07-14T15:55:38.294Z,39.40
2018-07-14T16:00:34.994Z,41.20
2018-07-14T16:03:03.563Z,41.30
2018-07-14T16:05:32.087Z,42.00
2018-07-14T16:08:00.702Z,41.80
2018-07-14T16:10:29.268Z,41.50
2018-07-14T16:12:57.824Z,41.30
2018-07-14T16:15:26.927Z,42.20
2018-07-14T16:17:55.445Z,42.10
2018-07-14T16:20:23.992Z,42.20
2018-07-14T16:22:52.514Z,42.30
2018-07-14T16:25:21.059Z,43.20
2018-07-14T16:27:49.552Z,42.70
2018-07-14T16:30:18.137Z,43.90
2018-07-14T16:32:46.730Z,42.90
2018-07-14T16:35:15.292Z,43.90
2018-07-14T16:37:43.767Z,44.10
2018-07-14T16:40:12.384Z,43.80
2018-07-14T16:42:40.928Z,44.20
2018-07-14T16:45:09.473Z,46.40
2018-07-14T16:47:38.050Z,45.00
2018-07-14T16:50:06.696Z,45.40
2018-07-14T16:52:35.206Z,46.20
2018-07-14T16:55:03.858Z,45.10
2018-07-14T16:57:32.486Z,45.10
2018-07-14T17:00:01.013Z,45.50
2018-07-14T17:02:29.578Z,46.20
2018-07-14T17:04:58.108Z,45.50
2018-07-14T17:07:26.647Z,46.50
2018-07-14T17:09:55.172Z,45.90
2018-07-14T17:12:23.705Z,46.20
2018-07-14T17:14:52.272Z,46.10
2018-07-14T17:17:20.788Z,47.00
2018-07-14T17:19:49.304Z,46.50
2018-07-14T17:22:17.841Z,46.00
2018-07-14T17:24:46.493Z,47.20
2018-07-14T17:27:15.024Z,46.00
2018-07-14T17:32:11.787Z,48.30
2018-07-14T17:34:40.311Z,49.70
2018-07-14T17:37:08.902Z,52.40
2018-07-14T17:39:37.473Z,55.10
2018-07-14T17:42:06.103Z,56.50
2018-07-14T17:44:34.712Z,57.70
2018-07-14T17:47:03.239Z,58.60
2018-07-14T17:49:31.771Z,58.20
2018-07-14T17:52:00.425Z,54.50
2018-07-14T17:56:56.988Z,57.40
2018-07-14T17:59:25.488Z,57.70
2018-07-14T18:01:54.031Z,64.70
2018-07-14T18:04:23.834Z,68.20
2018-07-14T18:06:52.482Z,68.60
2018-07-14T18:09:21.028Z,69.70
2018-07-14T18:11:49.610Z,70.10
2018-07-14T18:16:46.315Z,70.60
2018-07-14T18:19:14.918Z,71.60
2018-07-14T18:21:43.389Z,72.90
2018-07-14T18:24:11.937Z,72.80
2018-07-14T18:29:08.752Z,76.10
2018-07-14T18:31:37.266Z,77.00
2018-07-14T18:34:05.842Z,82.60
2018-07-14T18:36:34.480Z,88.00
2018-07-14T18:41:31.208Z,90.10
2018-07-14T18:43:59.774Z,89.70
2018-07-14T18:46:28.247Z,90.10
2018-07-14T18:48:56.774Z,90.50
2018-07-14T18:51:25.340Z,93.60
2018-07-14T18:53:53.850Z,93.90
2018-07-14T18:58:50.706Z,96.00
2018-07-14T19:01:19.221Z,93.90
2018-07-14T19:06:16.264Z,95.60
2018-07-14T19:08:44.797Z,95.00
2018-07-14T19:11:13.321Z,94.80
2018-07-14T19:13:41.879Z,95.40
2018-07-14T19:16:10.369Z,95.60
2018-07-14T19:18:38.943Z,95.80
2018-07-14T19:21:07.424Z,96.40
2018-07-14T19:23:35.936Z,96.70
2018-07-14T19:26:04.589Z,96.60
2018-07-14T19:28:32.991Z,97.10
2018-07-14T19:31:01.489Z,98.50
2018-07-14T19:33:30.024Z,98.40
2018-07-14T19:35:58.581Z,98.00
2018-07-14T19:38:27.444Z,98.00
2018-07-14T19:40:55.995Z,95.30
2018-07-14T19:43:24.548Z,95.50
2018-07-14T19:45:53.067Z,95.60
2018-07-14T19:48:21.583Z,96.30
2018-07-14T19:50:50.141Z,95.70
2018-07-14T19:53:18.723Z,97.40
2018-07-14T19:55:47.250Z,97.90
2018-07-14T19:58:15.767Z,97.80
2018-07-14T20:00:44.296Z,96.40
2018-07-14T20:03:12.853Z,96.50
2018-07-14T20:05:41.381Z,96.10
2018-07-14T20:10:38.105Z,97.30
2018-07-14T20:13:06.652Z,97.60
2018-07-14T20:15:35.196Z,96.40
2018-07-14T20:18:03.800Z,97.00
2018-07-14T20:23:00.512Z,98.90
2018-07-14T20:25:29.044Z,98.00
2018-07-14T20:27:57.564Z,98.20
2018-07-14T20:30:26.128Z,98.80
2018-07-14T20:37:51.044Z,99.90
2018-07-14T20:40:19.608Z,99.20
2018-07-14T20:42:48.264Z,99.10
2018-07-14T20:45:16.798Z,98.10
2018-07-14T20:47:45.338Z,97.60
2018-07-14T20:50:13.871Z,97.60
2018-07-14T20:52:42.425Z,96.50
2018-07-14T20:55:10.937Z,97.40
2018-07-14T20:57:39.495Z,96.00
2018-07-14T21:00:08.033Z,94.90
2018-07-14T21:02:36.556Z,94.80
2018-07-14T21:05:05.125Z,96.10
2018-07-14T21:07:33.619Z,96.60
2018-07-14T21:12:30.345Z,97.20
2018-07-14T21:14:58.884Z,97.60
2018-07-14T21:17:27.478Z,97.50
2018-07-14T21:19:56.014Z,97.90
2018-07-14T21:22:24.597Z,97.70
2018-07-14T21:24:53.161Z,98.60
2018-07-14T21:27:21.670Z,98.90
2018-07-14T21:29:50.246Z,99.90
2018-07-14T21:32:18.776Z,99.90
2018-07-14T21:34:47.309Z,99.90
2018-07-14T21:37:15.868Z,99.90
2018-07-14T21:42:12.609Z,98.10
2018-07-14T21:44:41.137Z,97.90
2018-07-14T21:47:09.629Z,97.70
2018-07-14T21:49:38.192Z,98.90
2018-07-14T21:52:06.833Z,98.00
2018-07-14T21:54:35.381Z,98.40
2018-07-14T21:57:03.927Z,97.90
2018-07-14T21:59:32.480Z,97.80
2018-07-14T22:02:04.272Z,97.20
2018-07-14T22:04:34.176Z,96.20
2018-07-14T22:07:02.742Z,96.20
2018-07-14T22:09:31.393Z,97.90
2018-07-14T22:14:28.182Z,97.60
2018-07-14T22:16:56.779Z,96.30
2018-07-14T22:19:25.322Z,98.40
2018-07-14T22:21:53.873Z,99.60
2018-07-14T22:24:22.467Z,99.70
2018-07-14T22:26:50.960Z,99.60
2018-07-14T22:29:19.521Z,99.00
2018-07-14T22:31:48.130Z,99.60
2018-07-14T22:34:16.889Z,99.20
2018-07-14T22:36:45.469Z,99.50
2018-07-14T22:39:14.000Z,99.20
2018-07-14T22:41:45.494Z,99.60
2018-07-14T22:44:14.025Z,98.00
2018-07-14T22:46:42.571Z,99.00
2018-07-14T22:51:39.290Z,99.10
2018-07-14T22:54:07.921Z,98.90
2018-07-14T22:56:36.465Z,98.70
2018-07-14T22:59:05.085Z,99.70
2018-07-14T23:01:33.656Z,98.00
2018-07-14T23:04:02.872Z,97.90
2018-07-14T23:06:31.455Z,98.70
2018-07-14T23:11:28.507Z,98.80
2018-07-14T23:13:57.049Z,98.30
2018-07-14T23:16:25.619Z,98.30
2018-07-14T23:23:50.525Z,98.50
2018-07-14T23:26:19.048Z,98.80
2018-07-14T23:28:47.552Z,97.70
2018-07-14T23:31:16.088Z,96.90
2018-07-14T23:33:44.616Z,97.50
2018-07-14T23:38:41.328Z,97.20
2018-07-14T23:41:09.808Z,97.80
2018-07-14T23:43:38.337Z,97.40
2018-07-14T23:46:06.856Z,97.00
2018-07-14T23:48:35.394Z,98.30
2018-07-14T23:51:03.970Z,98.90
2018-07-14T23:53:32.464Z,99.90
2018-07-14T23:56:00.968Z,99.90
2018-07-14T23:58:29.500Z,99.90
